Time;durP1;ratioP1;P1;durP2;ratioP2;P2;SDS_P1;SDS_P2;PMS_P1;PMS_P2;Temp;Humidity;BMP_temperature;BMP_pressure;BME280_temperature;BME280_humidity;BME280_pressure;Samples;Min_cycle;Max_cycle;Signal;HPM_P1;HPM_P2
2022/06/15 00:00:37;;;;;;;0.65;0.32;;;;;;;;;;4996212;28;20042;-68
2022/06/15 00:03:04;;;;;;;0.88;0.30;;;;;;;;;;4998404;28;20046;-68
2022/06/15 00:05:30;;;;;;;0.38;0.30;;;;;;;;;;4977450;28;20753;-68
2022/06/15 00:07:57;;;;;;;1.08;0.30;;;;;;;;;;4998116;28;20449;-68
2022/06/15 00:10:24;;;;;;;0.85;0.32;;;;;;;;;;5014168;28;20590;-66
2022/06/15 00:12:51;;;;;;;2.03;0.40;;;;;;;;;;5000592;28;20046;-69
2022/06/15 00:15:18;;;;;;;0.35;0.30;;;;;;;;;;5004958;28;20490;-68
2022/06/15 00:17:45;;;;;;;0.57;0.30;;;;;;;;;;4999600;28;20056;-68
2022/06/15 00:20:12;;;;;;;0.95;0.32;;;;;;;;;;4998286;28;20042;-67
2022/06/15 00:22:40;;;;;;;0.63;0.40;;;;;;;;;;5000519;28;20034;-67
2022/06/15 00:25:07;;;;;;;2.08;0.40;;;;;;;;;;5001706;28;20068;-67
2022/06/15 00:27:33;;;;;;;1.30;0.40;;;;;;;;;;5009095;28;20046;-68
2022/06/15 00:30:00;;;;;;;1.00;0.32;;;;;;;;;;5012467;28;20121;-66
2022/06/15 00:32:27;;;;;;;1.00;0.35;;;;;;;;;;4996198;28;20057;-67
2022/06/15 00:34:53;;;;;;;0.65;0.30;;;;;;;;;;5018384;28;20045;-67
2022/06/15 00:37:20;;;;;;;0.82;0.40;;;;;;;;;;5013824;28;20045;-67
2022/06/15 00:39:48;;;;;;;0.98;0.40;;;;;;;;;;5001799;28;20122;-67
2022/06/15 00:42:15;;;;;;;1.15;0.40;;;;;;;;;;4997840;28;20775;-67
2022/06/15 00:44:44;;;;;;;0.50;0.30;;;;;;;;;;5008644;28;21684;-66
2022/06/15 00:47:22;;;;;;;0.45;0.30;;;;;;;;;;5000195;28;20376;-67
2022/06/15 00:49:58;;;;;;;0.38;0.30;;;;;;;;;;5005522;28;20046;-67
2022/06/15 00:52:32;;;;;;;0.30;0.30;;;;;;;;;;5005783;28;20045;-68
2022/06/15 00:54:59;;;;;;;0.68;0.40;;;;;;;;;;4997577;28;20470;-67
2022/06/15 00:57:33;;;;;;;0.88;0.32;;;;;;;;;;5003627;28;20581;-68
2022/06/15 01:00:07;;;;;;;2.63;0.50;;;;;;;;;;4997354;28;20030;-68
2022/06/15 01:02:35;;;;;;;0.45;0.30;;;;;;;;;;5012677;28;20422;-68
2022/06/15 01:05:08;;;;;;;1.85;0.55;;;;;;;;;;5015778;28;20120;-68
2022/06/15 01:07:45;;;;;;;2.55;0.47;;;;;;;;;;5009810;28;20042;-67
2022/06/15 01:10:30;;;;;;;1.20;0.40;;;;;;;;;;4999160;28;20041;-67
2022/06/15 01:12:57;;;;;;;1.40;0.40;;;;;;;;;;5003024;28;20102;-68
2022/06/15 01:15:50;;;;;;;1.83;0.50;;;;;;;;;;4993770;28;20045;-68
2022/06/15 01:18:19;;;;;;;2.63;0.55;;;;;;;;;;5009811;28;20052;-68
2022/06/15 01:20:47;;;;;;;1.67;0.50;;;;;;;;;;4994657;28;20053;-67
2022/06/15 01:23:39;;;;;;;0.95;0.40;;;;;;;;;;5009964;28;20065;-68
2022/06/15 01:26:05;;;;;;;1.23;0.50;;;;;;;;;;4989804;28;20082;-67
2022/06/15 01:29:07;;;;;;;2.05;0.63;;;;;;;;;;4975452;28;21042;-68
2022/06/15 01:31:34;;;;;;;4.57;0.60;;;;;;;;;;4968481;28;20053;-69
2022/06/15 01:34:19;;;;;;;1.33;0.50;;;;;;;;;;4979629;28;20500;-69
2022/06/15 01:37:04;;;;;;;0.98;0.43;;;;;;;;;;4983736;28;20399;-68
2022/06/15 01:39:34;;;;;;;0.55;0.38;;;;;;;;;;4990542;28;20069;-69
2022/06/15 01:42:06;;;;;;;1.33;0.47;;;;;;;;;;4974612;28;20046;-69
2022/06/15 01:44:35;;;;;;;1.88;0.50;;;;;;;;;;4988653;28;20060;-69
2022/06/15 01:47:04;;;;;;;1.77;0.50;;;;;;;;;;4989636;28;20046;-68
2022/06/15 01:49:50;;;;;;;2.17;0.50;;;;;;;;;;4989054;28;20046;-68
2022/06/15 01:52:20;;;;;;;2.08;0.60;;;;;;;;;;4976125;28;21762;-68
2022/06/15 01:54:52;;;;;;;3.58;0.60;;;;;;;;;;4969665;28;20096;-68
2022/06/15 01:57:20;;;;;;;4.32;0.77;;;;;;;;;;4983923;28;20031;-67
2022/06/15 01:59:56;;;;;;;2.42;0.50;;;;;;;;;;4975618;28;20046;-68
2022/06/15 02:02:28;;;;;;;1.83;0.57;;;;;;;;;;4988225;28;20048;-70
2022/06/15 02:05:09;;;;;;;3.33;0.68;;;;;;;;;;4987539;28;20115;-69
2022/06/15 02:07:54;;;;;;;2.00;0.60;;;;;;;;;;4981572;28;20101;-68
2022/06/15 02:10:21;;;;;;;1.95;0.50;;;;;;;;;;4979301;28;20515;-68
2022/06/15 02:12:52;;;;;;;2.20;0.50;;;;;;;;;;4978220;28;20500;-67
2022/06/15 02:15:20;;;;;;;1.75;0.52;;;;;;;;;;4978733;28;20042;-67
2022/06/15 02:17:48;;;;;;;2.55;0.50;;;;;;;;;;4988610;28;20044;-67
2022/06/15 02:20:20;;;;;;;2.53;0.68;;;;;;;;;;4973202;28;20775;-66
2022/06/15 02:22:48;;;;;;;1.10;0.40;;;;;;;;;;4972532;28;20030;-67
2022/06/15 02:25:16;;;;;;;3.78;0.50;;;;;;;;;;4992272;28;20095;-67
2022/06/15 02:27:56;;;;;;;2.08;0.52;;;;;;;;;;4990237;28;20034;-69
2022/06/15 02:30:32;;;;;;;1.77;0.50;;;;;;;;;;4997013;28;20108;-69
2022/06/15 02:33:25;;;;;;;1.35;0.57;;;;;;;;;;4990305;28;20128;-69
2022/06/15 02:35:52;;;;;;;4.90;0.70;;;;;;;;;;5017362;28;20046;-69
2022/06/15 02:38:19;;;;;;;2.92;0.60;;;;;;;;;;5004402;28;20029;-68
2022/06/15 02:40:45;;;;;;;3.50;0.50;;;;;;;;;;5014359;28;20328;-68
2022/06/15 02:43:13;;;;;;;3.10;0.68;;;;;;;;;;5016424;28;20415;-66
2022/06/15 02:45:41;;;;;;;2.58;0.50;;;;;;;;;;5014089;28;20113;-68
2022/06/15 02:48:09;;;;;;;5.90;0.60;;;;;;;;;;5015428;28;20069;-68
2022/06/15 02:50:43;;;;;;;4.78;0.60;;;;;;;;;;5016636;28;20141;-67
2022/06/15 02:53:13;;;;;;;1.23;0.40;;;;;;;;;;5016493;28;20088;-67
2022/06/15 02:55:40;;;;;;;2.40;0.57;;;;;;;;;;5015722;28;20051;-67
2022/06/15 02:58:07;;;;;;;2.70;0.60;;;;;;;;;;5014931;28;20065;-67
2022/06/15 03:00:34;;;;;;;3.10;0.60;;;;;;;;;;5018421;28;20047;-67
2022/06/15 03:03:00;;;;;;;1.75;0.50;;;;;;;;;;5017010;28;20055;-67
2022/06/15 03:05:27;;;;;;;3.05;0.70;;;;;;;;;;5016716;28;20138;-67
2022/06/15 03:07:54;;;;;;;3.72;0.82;;;;;;;;;;5013207;28;20038;-67
2022/06/15 03:10:20;;;;;;;3.80;0.68;;;;;;;;;;5012858;28;20120;-69
2022/06/15 03:12:47;;;;;;;2.08;0.60;;;;;;;;;;5010907;28;20090;-69
2022/06/15 03:15:14;;;;;;;2.08;0.60;;;;;;;;;;5012931;28;20398;-69
2022/06/15 03:17:41;;;;;;;2.97;0.85;;;;;;;;;;5013087;28;20129;-69
2022/06/15 03:20:08;;;;;;;2.60;0.70;;;;;;;;;;5016833;28;20129;-68
2022/06/15 03:22:36;;;;;;;4.07;0.80;;;;;;;;;;5008384;28;20402;-68
2022/06/15 03:25:03;;;;;;;3.25;0.77;;;;;;;;;;5012718;28;20037;-68
2022/06/15 03:27:29;;;;;;;2.33;0.75;;;;;;;;;;5009653;28;20034;-68
2022/06/15 03:29:56;;;;;;;2.50;0.80;;;;;;;;;;4998686;28;20054;-68
2022/06/15 03:32:23;;;;;;;2.20;0.70;;;;;;;;;;5023298;28;20042;-69
2022/06/15 03:34:49;;;;;;;2.38;0.70;;;;;;;;;;5009863;28;20042;-68
2022/06/15 03:37:16;;;;;;;1.88;0.70;;;;;;;;;;5005184;28;20132;-68
2022/06/15 03:39:43;;;;;;;2.03;0.63;;;;;;;;;;5014474;28;20174;-68
2022/06/15 03:42:11;;;;;;;1.75;0.60;;;;;;;;;;5014607;28;20044;-68
2022/06/15 03:44:38;;;;;;;3.75;0.80;;;;;;;;;;5015435;28;20049;-68
2022/06/15 03:47:06;;;;;;;2.85;0.80;;;;;;;;;;5008253;28;20477;-68
2022/06/15 03:49:32;;;;;;;1.67;0.60;;;;;;;;;;5011820;28;20042;-68
2022/06/15 03:51:59;;;;;;;2.67;0.90;;;;;;;;;;5029755;28;20115;-68
2022/06/15 03:54:26;;;;;;;2.45;0.82;;;;;;;;;;5015374;28;21702;-69
2022/06/15 03:56:53;;;;;;;3.15;1.00;;;;;;;;;;5017043;28;20149;-68
2022/06/15 03:59:20;;;;;;;2.60;0.80;;;;;;;;;;5016816;28;20041;-68
2022/06/15 04:01:47;;;;;;;2.22;1.00;;;;;;;;;;5015550;28;20124;-70
2022/06/15 04:04:13;;;;;;;4.35;1.40;;;;;;;;;;5016831;28;20034;-69
2022/06/15 04:06:41;;;;;;;3.08;1.27;;;;;;;;;;5012125;28;20064;-68
2022/06/15 04:09:07;;;;;;;3.05;1.35;;;;;;;;;;5016665;28;20057;-68
2022/06/15 04:14:19;;;;;;;3.05;1.20;;;;;;;;;;5016030;28;20048;-69
2022/06/15 04:16:53;;;;;;;3.15;1.27;;;;;;;;;;5007263;28;20045;-69
2022/06/15 04:19:20;;;;;;;3.78;1.50;;;;;;;;;;5016525;28;20041;-68
2022/06/15 04:21:47;;;;;;;3.30;1.38;;;;;;;;;;5032454;28;20165;-68
2022/06/15 04:24:15;;;;;;;3.40;1.30;;;;;;;;;;5014074;28;20042;-69
2022/06/15 04:26:42;;;;;;;3.10;1.20;;;;;;;;;;5014762;28;21698;-69
2022/06/15 04:29:09;;;;;;;3.35;1.25;;;;;;;;;;5010959;28;20034;-67
2022/06/15 04:31:37;;;;;;;3.60;1.40;;;;;;;;;;5017446;28;20037;-66
2022/06/15 04:34:05;;;;;;;4.00;1.30;;;;;;;;;;5018871;28;20038;-67
2022/06/15 04:36:31;;;;;;;3.97;1.15;;;;;;;;;;5017321;28;20203;-68
2022/06/15 04:38:58;;;;;;;5.00;1.40;;;;;;;;;;5018156;28;20060;-67
2022/06/15 04:41:25;;;;;;;3.97;1.50;;;;;;;;;;5016748;28;20140;-67
2022/06/15 04:43:52;;;;;;;3.58;1.55;;;;;;;;;;5011991;28;20033;-69
2022/06/15 04:46:19;;;;;;;3.03;1.17;;;;;;;;;;5004782;28;20050;-69
2022/06/15 04:48:45;;;;;;;3.38;1.35;;;;;;;;;;5015178;28;20544;-68
2022/06/15 04:51:18;;;;;;;3.42;1.15;;;;;;;;;;5015057;28;20120;-69
2022/06/15 04:53:44;;;;;;;3.28;1.30;;;;;;;;;;5007784;28;20141;-68
2022/06/15 04:56:12;;;;;;;3.13;1.30;;;;;;;;;;5015546;28;20068;-69
2022/06/15 04:58:39;;;;;;;3.08;1.20;;;;;;;;;;5013710;28;20671;-69
2022/06/15 05:01:07;;;;;;;3.65;1.30;;;;;;;;;;5012774;28;20040;-69
2022/06/15 05:03:36;;;;;;;3.63;1.30;;;;;;;;;;5017328;28;20136;-70
2022/06/15 05:06:08;;;;;;;3.05;1.27;;;;;;;;;;5017964;28;20057;-71
2022/06/15 05:08:34;;;;;;;3.00;1.00;;;;;;;;;;5033487;28;20745;-69
2022/06/15 05:11:01;;;;;;;3.33;1.25;;;;;;;;;;5019121;28;20049;-69
2022/06/15 05:13:28;;;;;;;3.22;1.48;;;;;;;;;;5014008;28;20829;-69
2022/06/15 05:15:55;;;;;;;3.30;1.10;;;;;;;;;;5017282;28;20037;-68
2022/06/15 05:18:22;;;;;;;3.85;1.20;;;;;;;;;;5013662;28;21079;-69
2022/06/15 05:20:49;;;;;;;3.25;1.17;;;;;;;;;;5016636;28;20056;-68
2022/06/15 05:23:16;;;;;;;2.55;1.00;;;;;;;;;;5014905;28;20044;-68
2022/06/15 05:25:43;;;;;;;2.63;1.00;;;;;;;;;;5014676;28;20057;-67
2022/06/15 05:28:14;;;;;;;2.60;1.00;;;;;;;;;;5016404;28;20044;-68
2022/06/15 05:30:41;;;;;;;2.85;1.05;;;;;;;;;;4997519;28;20507;-67
2022/06/15 05:33:07;;;;;;;2.47;0.80;;;;;;;;;;4993030;28;20128;-68
2022/06/15 05:35:34;;;;;;;2.35;0.90;;;;;;;;;;4989845;28;20135;-67
2022/06/15 05:38:01;;;;;;;2.80;1.00;;;;;;;;;;4991097;28;20474;-67
2022/06/15 05:40:27;;;;;;;2.45;0.90;;;;;;;;;;4990547;28;20104;-68
2022/06/15 05:42:54;;;;;;;2.83;1.00;;;;;;;;;;4996947;28;20041;-68
2022/06/15 05:45:21;;;;;;;3.15;1.35;;;;;;;;;;4991970;28;20101;-68
2022/06/15 05:47:47;;;;;;;3.15;1.27;;;;;;;;;;5009816;28;20033;-67
2022/06/15 05:50:15;;;;;;;2.90;0.90;;;;;;;;;;5011613;28;20034;-68
2022/06/15 05:52:42;;;;;;;2.95;1.25;;;;;;;;;;5009905;28;20503;-68
2022/06/15 05:55:09;;;;;;;3.22;1.30;;;;;;;;;;5010331;28;20041;-68
2022/06/15 05:57:36;;;;;;;3.30;1.27;;;;;;;;;;5010046;28;20088;-68
2022/06/15 06:00:05;;;;;;;3.58;1.42;;;;;;;;;;5011234;28;20034;-69
2022/06/15 06:02:32;;;;;;;3.13;1.17;;;;;;;;;;5009142;28;20113;-68
2022/06/15 06:05:08;;;;;;;4.32;1.60;;;;;;;;;;5009540;28;20048;-70
2022/06/15 06:07:34;;;;;;;2.70;1.25;;;;;;;;;;5009727;28;20112;-68
2022/06/15 06:10:01;;;;;;;3.50;1.40;;;;;;;;;;5008633;28;20048;-69
2022/06/15 06:12:28;;;;;;;3.10;1.33;;;;;;;;;;5008793;28;20053;-69
2022/06/15 06:14:54;;;;;;;3.72;1.50;;;;;;;;;;5011617;28;20033;-69
2022/06/15 06:17:21;;;;;;;3.78;1.50;;;;;;;;;;5007184;28;20426;-69
2022/06/15 06:19:48;;;;;;;3.67;1.55;;;;;;;;;;5009796;28;20778;-68
2022/06/15 06:22:14;;;;;;;3.60;1.45;;;;;;;;;;5007634;28;20401;-68
2022/06/15 06:24:41;;;;;;;3.50;1.52;;;;;;;;;;5008869;28;20129;-68
2022/06/15 06:27:08;;;;;;;3.50;1.50;;;;;;;;;;5010949;28;20060;-69
2022/06/15 06:29:35;;;;;;;3.65;1.75;;;;;;;;;;5009459;28;20037;-68
2022/06/15 06:32:02;;;;;;;3.65;1.60;;;;;;;;;;5006827;28;20034;-68
2022/06/15 06:34:29;;;;;;;4.20;2.15;;;;;;;;;;5009905;28;20045;-68
2022/06/15 06:36:56;;;;;;;7.68;1.90;;;;;;;;;;5010207;28;20052;-68
2022/06/15 06:39:25;;;;;;;3.90;1.70;;;;;;;;;;5008321;28;20073;-68
2022/06/15 06:41:52;;;;;;;5.47;2.08;;;;;;;;;;5005583;28;20566;-68
2022/06/15 06:44:19;;;;;;;3.70;1.67;;;;;;;;;;5007481;28;20125;-68
2022/06/15 06:46:46;;;;;;;3.10;1.40;;;;;;;;;;5013044;28;20046;-68
2022/06/15 06:49:13;;;;;;;4.00;1.42;;;;;;;;;;5008233;28;20045;-68
2022/06/15 06:51:41;;;;;;;3.50;1.40;;;;;;;;;;5003844;28;20043;-68
2022/06/15 06:54:09;;;;;;;3.08;1.30;;;;;;;;;;5003888;28;20501;-68
2022/06/15 06:56:36;;;;;;;3.80;1.40;;;;;;;;;;5011107;28;20045;-69
2022/06/15 06:59:03;;;;;;;3.10;1.30;;;;;;;;;;4998917;28;20071;-68
2022/06/15 07:01:30;;;;;;;3.05;1.23;;;;;;;;;;5012550;28;20528;-70
2022/06/15 07:03:57;;;;;;;3.47;1.27;;;;;;;;;;5014335;28;20034;-69
2022/06/15 07:06:23;;;;;;;2.90;1.13;;;;;;;;;;5013541;28;20110;-68
2022/06/15 07:08:51;;;;;;;3.17;1.38;;;;;;;;;;5012942;28;20442;-68
2022/06/15 07:11:18;;;;;;;3.50;1.27;;;;;;;;;;5013687;28;20053;-67
2022/06/15 07:13:45;;;;;;;2.22;0.95;;;;;;;;;;5016060;28;20061;-68
2022/06/15 07:16:14;;;;;;;2.80;0.90;;;;;;;;;;5015815;28;20045;-68
2022/06/15 07:18:41;;;;;;;3.08;1.20;;;;;;;;;;5030916;28;20176;-69
2022/06/15 07:21:11;;;;;;;3.05;1.02;;;;;;;;;;5010957;28;20040;-68
2022/06/15 07:23:39;;;;;;;2.83;1.02;;;;;;;;;;5012351;28;20496;-68
2022/06/15 07:26:06;;;;;;;2.72;0.95;;;;;;;;;;5011640;28;20057;-68
2022/06/15 07:28:33;;;;;;;3.05;1.05;;;;;;;;;;5016745;28;20030;-69
2022/06/15 07:31:00;;;;;;;2.78;1.17;;;;;;;;;;5018515;28;20065;-69
2022/06/15 07:33:27;;;;;;;3.08;1.30;;;;;;;;;;5012117;28;20088;-69
2022/06/15 07:35:53;;;;;;;3.95;1.50;;;;;;;;;;5016731;28;20125;-69
2022/06/15 07:38:20;;;;;;;3.55;1.40;;;;;;;;;;5016755;28;20061;-68
2022/06/15 07:40:47;;;;;;;3.40;1.30;;;;;;;;;;5017079;28;20065;-69
2022/06/15 07:43:14;;;;;;;3.67;1.50;;;;;;;;;;5016742;28;20037;-68
2022/06/15 07:45:41;;;;;;;4.13;1.40;;;;;;;;;;5012736;28;20246;-68
2022/06/15 07:50:53;;;;;;;2.90;1.27;;;;;;;;;;5017513;28;20060;-67
2022/06/15 07:53:20;;;;;;;3.58;1.58;;;;;;;;;;5015951;28;20025;-68
2022/06/15 07:55:48;;;;;;;3.97;1.20;;;;;;;;;;5017180;28;20065;-68
2022/06/15 07:58:15;;;;;;;4.05;1.55;;;;;;;;;;5016245;28;20049;-68
2022/06/15 08:00:44;;;;;;;3.40;1.58;;;;;;;;;;5017561;28;20112;-68
2022/06/15 08:03:11;;;;;;;3.33;1.33;;;;;;;;;;5013643;28;20504;-69
2022/06/15 08:05:40;;;;;;;3.45;1.48;;;;;;;;;;5013604;28;20536;-69
2022/06/15 08:08:08;;;;;;;3.20;1.27;;;;;;;;;;5011394;28;20045;-69
2022/06/15 08:10:36;;;;;;;3.85;1.70;;;;;;;;;;5020157;28;20045;-69
2022/06/15 08:13:07;;;;;;;2.88;1.27;;;;;;;;;;5016141;28;20037;-69
2022/06/15 08:15:34;;;;;;;3.10;1.20;;;;;;;;;;5020407;28;20041;-68
2022/06/15 08:18:11;;;;;;;6.10;1.33;;;;;;;;;;5016884;28;20071;-64
2022/06/15 08:20:42;;;;;;;3.20;1.27;;;;;;;;;;5015398;28;20104;-64
2022/06/15 08:23:14;;;;;;;3.90;1.65;;;;;;;;;;5017968;28;20042;-64
2022/06/15 08:25:43;;;;;;;3.38;1.23;;;;;;;;;;5018000;28;20050;-64
2022/06/15 08:28:10;;;;;;;3.38;1.38;;;;;;;;;;5012270;28;20042;-64
2022/06/15 08:30:37;;;;;;;4.35;1.30;;;;;;;;;;5016868;28;20065;-64
2022/06/15 08:33:05;;;;;;;3.08;1.20;;;;;;;;;;5017813;28;20045;-64
2022/06/15 08:35:31;;;;;;;3.47;1.38;;;;;;;;;;5018326;28;20044;-64
2022/06/15 08:37:58;;;;;;;3.53;1.05;;;;;;;;;;5016433;28;20067;-63
2022/06/15 08:40:27;;;;;;;2.60;1.10;;;;;;;;;;5029956;28;20049;-63
2022/06/15 08:42:58;;;;;;;2.97;1.15;;;;;;;;;;5016453;28;20041;-63
2022/06/15 08:45:34;;;;;;;3.35;1.30;;;;;;;;;;5013696;28;21660;-63
2022/06/15 08:48:04;;;;;;;2.50;0.95;;;;;;;;;;5013656;28;20072;-64
2022/06/15 08:50:33;;;;;;;2.80;1.00;;;;;;;;;;5015568;28;20070;-63
2022/06/15 08:53:04;;;;;;;3.38;1.27;;;;;;;;;;5016086;28;20495;-63
2022/06/15 08:55:38;;;;;;;4.38;1.20;;;;;;;;;;5014268;28;20041;-64
2022/06/15 08:58:28;;;;;;;2.60;1.00;;;;;;;;;;5014971;28;20052;-64
2022/06/15 09:00:58;;;;;;;2.53;1.05;;;;;;;;;;5011484;28;20041;-64
2022/06/15 09:03:34;;;;;;;3.45;1.48;;;;;;;;;;5011639;28;20034;-65
2022/06/15 09:06:06;;;;;;;3.30;1.17;;;;;;;;;;5012858;28;20046;-64
2022/06/15 09:08:35;;;;;;;2.72;1.00;;;;;;;;;;5012121;28;20227;-64
2022/06/15 09:11:02;;;;;;;3.22;1.30;;;;;;;;;;5014181;28;20058;-64
2022/06/15 09:13:29;;;;;;;2.90;1.20;;;;;;;;;;5013189;28;20639;-64
2022/06/15 09:16:03;;;;;;;2.90;1.20;;;;;;;;;;5015476;28;20156;-64
2022/06/15 09:18:33;;;;;;;4.75;1.48;;;;;;;;;;5013057;28;20080;-64
2022/06/15 09:21:10;;;;;;;3.28;1.17;;;;;;;;;;5014379;28;20157;-64
2022/06/15 09:23:46;;;;;;;3.40;1.20;;;;;;;;;;5012780;28;20530;-64
2022/06/15 09:26:18;;;;;;;2.50;1.05;;;;;;;;;;5013600;28;20686;-63
2022/06/15 09:29:11;;;;;;;3.45;1.23;;;;;;;;;;5013929;28;20087;-63
2022/06/15 09:32:04;;;;;;;3.55;1.30;;;;;;;;;;5011932;28;20110;-64
2022/06/15 09:34:38;;;;;;;3.10;1.25;;;;;;;;;;5012768;28;20132;-64
2022/06/15 09:37:14;;;;;;;3.65;1.40;;;;;;;;;;5014187;28;20904;-63
2022/06/15 09:39:41;;;;;;;2.78;1.10;;;;;;;;;;5013649;28;20048;-64
2022/06/15 09:42:26;;;;;;;4.95;1.33;;;;;;;;;;5013834;28;20148;-64
2022/06/15 09:45:08;;;;;;;3.60;1.48;;;;;;;;;;5012034;28;20076;-64
2022/06/15 09:47:52;;;;;;;3.60;1.40;;;;;;;;;;5013602;28;20171;-64
2022/06/15 09:50:31;;;;;;;3.67;1.40;;;;;;;;;;5032704;28;20548;-64
2022/06/15 09:53:18;;;;;;;3.38;1.60;;;;;;;;;;5016337;28;20042;-64
2022/06/15 09:55:54;;;;;;;3.55;1.42;;;;;;;;;;5005060;28;20083;-63
2022/06/15 09:58:23;;;;;;;3.90;1.35;;;;;;;;;;5016302;28;20133;-64
2022/06/15 10:00:50;;;;;;;3.65;1.52;;;;;;;;;;5014791;28;20046;-64
2022/06/15 10:03:24;;;;;;;3.47;1.40;;;;;;;;;;5013003;28;20041;-64
2022/06/15 10:05:50;;;;;;;;;;;;;;;;;;5015140;28;20080;-64
2022/06/15 10:08:17;;;;;;;3.45;1.40;;;;;;;;;;5013386;28;19960;-64
2022/06/15 10:10:46;;;;;;;2.72;1.05;;;;;;;;;;5011442;28;20501;-64
2022/06/15 10:13:18;;;;;;;3.40;1.40;;;;;;;;;;5010929;28;20499;-64
2022/06/15 10:15:45;;;;;;;2.38;1.00;;;;;;;;;;5012472;28;20052;-64
2022/06/15 10:18:15;;;;;;;3.83;1.33;;;;;;;;;;5011975;28;20528;-64
2022/06/15 10:20:42;;;;;;;4.10;1.40;;;;;;;;;;5014440;28;20049;-64
2022/06/15 10:23:25;;;;;;;5.43;1.80;;;;;;;;;;5013839;28;20042;-62
2022/06/15 10:25:55;;;;;;;3.30;1.50;;;;;;;;;;5004036;28;20065;-63
2022/06/15 10:28:26;;;;;;;3.60;1.58;;;;;;;;;;4990114;28;20104;-63
2022/06/15 10:30:57;;;;;;;3.97;1.67;;;;;;;;;;5005451;28;20377;-63
2022/06/15 10:33:24;;;;;;;3.42;1.60;;;;;;;;;;5012576;28;20046;-64
2022/06/15 10:35:56;;;;;;;3.67;1.60;;;;;;;;;;5013065;28;20116;-64
2022/06/15 10:38:24;;;;;;;3.67;1.57;;;;;;;;;;5011814;28;20045;-64
2022/06/15 10:43:49;;;;;;;3.28;1.50;;;;;;;;;;5009114;28;20096;-64
2022/06/15 10:46:16;;;;;;;5.03;1.70;;;;;;;;;;5009811;28;20072;-64
2022/06/15 10:48:45;;;;;;;5.13;2.20;;;;;;;;;;4996414;28;20053;-64
2022/06/15 10:51:14;;;;;;;3.63;1.67;;;;;;;;;;4995712;28;20069;-64
2022/06/15 10:54:12;;;;;;;4.43;1.90;;;;;;;;;;5003979;28;20045;-64
2022/06/15 11:02:29;;;;;;;4.10;2.10;;;;;;;;;;5006115;28;20107;-63
2022/06/15 11:04:58;;;;;;;7.50;2.38;;;;;;;;;;5013667;28;20041;-63
2022/06/15 11:07:27;;;;;;;4.97;2.58;;;;;;;;;;4998759;28;20054;-65
2022/06/15 11:09:57;;;;;;;4.50;2.22;;;;;;;;;;5018044;28;20042;-65
2022/06/15 11:12:23;;;;;;;5.15;2.67;;;;;;;;;;5005561;28;20176;-65
2022/06/15 11:14:53;;;;;;;5.22;2.60;;;;;;;;;;5012070;28;20034;-65
2022/06/15 11:20:33;;;;;;;4.35;2.50;;;;;;;;;;5016720;28;20110;-65
2022/06/15 11:23:12;;;;;;;4.75;2.47;;;;;;;;;;5005941;28;20096;-64
2022/06/15 11:25:42;;;;;;;5.00;2.78;;;;;;;;;;5008923;28;20139;-65
2022/06/15 11:28:13;;;;;;;5.85;2.42;;;;;;;;;;5005532;28;20038;-65
2022/06/15 11:30:43;;;;;;;4.13;2.33;;;;;;;;;;5007777;28;20061;-65
2022/06/15 11:33:23;;;;;;;5.00;2.63;;;;;;;;;;5015642;28;20514;-65
2022/06/15 11:36:16;;;;;;;5.55;2.88;;;;;;;;;;5012873;28;20048;-65
2022/06/15 11:38:55;;;;;;;4.65;2.80;;;;;;;;;;5012974;28;20076;-65
2022/06/15 11:41:27;;;;;;;4.55;2.30;;;;;;;;;;5018378;28;20064;-65
2022/06/15 11:43:55;;;;;;;5.47;3.10;;;;;;;;;;5005291;28;20049;-65
2022/06/15 11:46:28;;;;;;;4.38;2.58;;;;;;;;;;5006898;28;20084;-66
2022/06/15 11:49:08;;;;;;;4.75;2.72;;;;;;;;;;5003936;28;20498;-65
2022/06/15 11:51:41;;;;;;;5.95;2.85;;;;;;;;;;5016463;28;20064;-65
2022/06/15 11:54:27;;;;;;;5.35;2.83;;;;;;;;;;5005576;28;20048;-65
2022/06/15 11:57:06;;;;;;;4.05;2.30;;;;;;;;;;5001033;28;20573;-65
2022/06/15 11:59:41;;;;;;;5.40;2.85;;;;;;;;;;5009031;28;20046;-65
2022/06/15 12:02:27;;;;;;;4.47;2.40;;;;;;;;;;5012817;28;20034;-64
2022/06/15 12:05:03;;;;;;;4.80;2.60;;;;;;;;;;5006504;28;20061;-64
2022/06/15 12:07:33;;;;;;;5.05;2.40;;;;;;;;;;5010529;28;20049;-65
2022/06/15 12:10:07;;;;;;;4.25;2.33;;;;;;;;;;5013148;28;20041;-65
2022/06/15 12:12:38;;;;;;;4.15;1.90;;;;;;;;;;5006984;28;20069;-65
2022/06/15 12:15:23;;;;;;;4.85;2.40;;;;;;;;;;4986612;28;20116;-64
2022/06/15 12:18:08;;;;;;;4.22;2.15;;;;;;;;;;5005783;28;20053;-64
2022/06/15 12:20:45;;;;;;;5.78;2.70;;;;;;;;;;4992293;28;20388;-64
2022/06/15 12:23:31;;;;;;;5.90;2.33;;;;;;;;;;4995138;28;20042;-64
2022/06/15 12:26:03;;;;;;;4.85;2.53;;;;;;;;;;5009067;28;20148;-64
2022/06/15 12:28:33;;;;;;;4.93;2.30;;;;;;;;;;5012393;28;20084;-63
2022/06/15 12:31:23;;;;;;;4.85;2.42;;;;;;;;;;5015690;28;20041;-63
2022/06/15 12:34:10;;;;;;;4.50;2.17;;;;;;;;;;5004597;28;20037;-63
2022/06/15 12:36:42;;;;;;;4.10;2.22;;;;;;;;;;5015163;28;20526;-63
2022/06/15 12:39:09;;;;;;;4.20;2.00;;;;;;;;;;5015218;28;20177;-63
2022/06/15 12:44:23;;;;;;;4.40;2.00;;;;;;;;;;5014683;28;20103;-63
2022/06/15 12:46:51;;;;;;;3.65;1.85;;;;;;;;;;5013778;28;20049;-63
2022/06/15 12:49:36;;;;;;;5.07;1.58;;;;;;;;;;5014474;28;20042;-64
2022/06/15 12:52:12;;;;;;;3.97;2.00;;;;;;;;;;5011461;28;20718;-64
2022/06/15 12:54:48;;;;;;;4.43;1.92;;;;;;;;;;5005713;28;20054;-63
2022/06/15 12:57:34;;;;;;;4.18;2.03;;;;;;;;;;5005670;28;20065;-63
2022/06/15 13:00:19;;;;;;;4.60;1.80;;;;;;;;;;5007558;28;20431;-63
2022/06/15 13:02:45;;;;;;;3.90;1.70;;;;;;;;;;4992179;28;20044;-63
2022/06/15 13:05:21;;;;;;;3.50;1.55;;;;;;;;;;4994939;28;20084;-64
2022/06/15 13:08:06;;;;;;;5.30;2.08;;;;;;;;;;5011618;28;20049;-63
2022/06/15 13:10:34;;;;;;;3.83;1.75;;;;;;;;;;5010494;28;20045;-63
2022/06/15 13:13:02;;;;;;;3.53;1.52;;;;;;;;;;4993232;28;20035;-63
2022/06/15 13:15:36;;;;;;;3.45;1.27;;;;;;;;;;4992512;28;20156;-63
2022/06/15 13:18:08;;;;;;;3.40;1.50;;;;;;;;;;4982218;28;20042;-63
2022/06/15 13:20:55;;;;;;;3.63;1.40;;;;;;;;;;5010722;28;20091;-63
2022/06/15 13:23:26;;;;;;;3.40;1.42;;;;;;;;;;5009598;28;20064;-64
2022/06/15 13:25:57;;;;;;;3.15;1.38;;;;;;;;;;5013081;28;20056;-63
2022/06/15 13:28:29;;;;;;;6.60;1.50;;;;;;;;;;5011535;28;20045;-63
2022/06/15 13:31:00;;;;;;;3.22;1.40;;;;;;;;;;5012381;28;20510;-63
2022/06/15 13:33:45;;;;;;;3.03;1.23;;;;;;;;;;5010260;28;20056;-63
2022/06/15 13:36:12;;;;;;;2.70;1.30;;;;;;;;;;5012705;28;20042;-63
2022/06/15 13:38:39;;;;;;;3.35;1.30;;;;;;;;;;5012395;28;20038;-63
2022/06/15 13:41:07;;;;;;;3.83;1.10;;;;;;;;;;5010770;28;20049;-63
2022/06/15 13:43:43;;;;;;;3.10;1.40;;;;;;;;;;5013036;28;20118;-63
2022/06/15 13:46:28;;;;;;;3.13;1.30;;;;;;;;;;5013780;28;20942;-63
2022/06/15 13:49:07;;;;;;;3.67;1.40;;;;;;;;;;5010604;28;20045;-63
2022/06/15 13:51:37;;;;;;;3.25;1.17;;;;;;;;;;5001920;28;20048;-63
2022/06/15 13:54:22;;;;;;;3.10;1.27;;;;;;;;;;4990963;28;20080;-63
2022/06/15 13:56:55;;;;;;;3.60;1.52;;;;;;;;;;4994916;28;20144;-63
2022/06/15 13:59:47;;;;;;;2.95;1.30;;;;;;;;;;4988508;28;20045;-63
2022/06/15 14:02:29;;;;;;;3.65;1.30;;;;;;;;;;4971831;28;20525;-64
2022/06/15 14:05:11;;;;;;;3.67;1.40;;;;;;;;;;4989337;28;20042;-63
2022/06/15 14:07:56;;;;;;;2.60;1.10;;;;;;;;;;4994012;28;20092;-63
2022/06/15 14:10:32;;;;;;;2.88;1.10;;;;;;;;;;4994446;28;20501;-63
2022/06/15 14:12:59;;;;;;;2.97;1.17;;;;;;;;;;4983372;28;20128;-64
2022/06/15 14:15:58;;;;;;;2.40;1.00;;;;;;;;;;4989103;28;20075;-63
2022/06/15 14:18:37;;;;;;;3.08;1.20;;;;;;;;;;4972658;28;20046;-63
2022/06/15 14:21:15;;;;;;;3.35;1.30;;;;;;;;;;4984597;28;20041;-63
2022/06/15 14:23:41;;;;;;;2.80;1.13;;;;;;;;;;4988997;28;20042;-63
2022/06/15 14:26:09;;;;;;;3.25;1.15;;;;;;;;;;4975286;28;20147;-63
2022/06/15 14:28:36;;;;;;;2.80;1.20;;;;;;;;;;4973886;28;20053;-63
2022/06/15 14:31:14;;;;;;;3.13;1.35;;;;;;;;;;4974190;28;20043;-63
2022/06/15 14:33:41;;;;;;;4.55;1.55;;;;;;;;;;4974164;28;20042;-63
2022/06/15 14:36:12;;;;;;;2.95;1.10;;;;;;;;;;4973030;28;20057;-63
2022/06/15 14:38:39;;;;;;;3.42;1.42;;;;;;;;;;4972612;28;20823;-63
2022/06/15 14:41:10;;;;;;;3.00;1.13;;;;;;;;;;4973954;28;20566;-63
2022/06/15 14:43:37;;;;;;;3.17;1.40;;;;;;;;;;4972802;28;20052;-63
2022/06/15 14:46:04;;;;;;;3.30;1.20;;;;;;;;;;4972645;28;20050;-62
2022/06/15 14:48:33;;;;;;;2.67;1.17;;;;;;;;;;4973032;28;20103;-63
2022/06/15 14:51:10;;;;;;;3.00;1.10;;;;;;;;;;4973001;28;20091;-63
2022/06/15 14:53:38;;;;;;;2.30;0.90;;;;;;;;;;4972391;28;20057;-63
2022/06/15 14:56:06;;;;;;;3.03;1.20;;;;;;;;;;4964239;28;20078;-63
2022/06/15 14:58:33;;;;;;;4.18;1.40;;;;;;;;;;4973164;28;20042;-63
2022/06/15 15:01:13;;;;;;;3.83;1.20;;;;;;;;;;4971804;28;20057;-63
2022/06/15 15:03:41;;;;;;;3.50;1.40;;;;;;;;;;4970679;28;20049;-63
2022/06/15 15:06:12;;;;;;;2.92;1.20;;;;;;;;;;4972029;28;21647;-63
2022/06/15 15:08:40;;;;;;;3.30;1.50;;;;;;;;;;4972259;28;20488;-64
2022/06/15 15:11:33;;;;;;;3.30;1.20;;;;;;;;;;4972375;28;20063;-63
2022/06/15 15:14:04;;;;;;;2.85;1.10;;;;;;;;;;4971388;28;20062;-63
2022/06/15 15:16:54;;;;;;;4.20;1.35;;;;;;;;;;4972069;28;20114;-62
2022/06/15 15:19:30;;;;;;;2.13;0.90;;;;;;;;;;4967771;28;20559;-63
2022/06/15 15:22:02;;;;;;;3.45;1.23;;;;;;;;;;4973404;28;20062;-63
2022/06/15 15:24:31;;;;;;;3.08;1.35;;;;;;;;;;4976991;28;20608;-63
2022/06/15 15:27:01;;;;;;;3.10;1.38;;;;;;;;;;4992232;28;20067;-65